Time;durP1;ratioP1;P1;durP2;ratioP2;P2;SDS_P1;SDS_P2;PMS_P1;PMS_P2;Temp;Humidity;BMP_temperature;BMP_pressure;BME280_temperature;BME280_humidity;BME280_pressure;Samples;Min_cycle;Max_cycle;Signal;HPM_P1;HPM_P2
2021/10/17 00:00:23;;;;;;;10.02;4.30;;;14.40;72.70;;;;;;5073365;28;20146;-74
2021/10/17 00:02:49;;;;;;;9.40;4.38;;;14.40;72.70;;;;;;5073523;28;20017;-74
2021/10/17 00:05:17;;;;;;;12.02;4.63;;;14.40;72.70;;;;;;5073391;28;20024;-74
2021/10/17 00:07:44;;;;;;;8.45;3.97;;;14.40;72.60;;;;;;5073374;28;20512;-74
2021/10/17 00:10:13;;;;;;;9.68;4.18;;;14.40;72.60;;;;;;5073102;28;20028;-74
2021/10/17 00:12:40;;;;;;;9.70;3.80;;;14.50;72.40;;;;;;5073270;28;20029;-74
2021/10/17 00:15:08;;;;;;;11.40;4.00;;;14.50;72.30;;;;;;5073269;28;20020;-74
2021/10/17 00:17:34;;;;;;;9.13;4.25;;;14.50;72.20;;;;;;5073229;28;20504;-73
2021/10/17 00:20:00;;;;;;;10.23;4.35;;;14.50;72.20;;;;;;5072994;28;20020;-74
2021/10/17 00:22:25;;;;;;;9.52;4.05;;;14.60;72.20;;;;;;5072927;28;20021;-74
2021/10/17 00:24:51;;;;;;;9.48;4.63;;;14.50;72.00;;;;;;5055352;28;20036;-74
2021/10/17 00:27:16;;;;;;;9.77;4.10;;;14.50;72.00;;;;;;5073174;28;20039;-74
2021/10/17 00:29:42;;;;;;;9.65;4.10;;;14.50;71.90;;;;;;5054800;28;20028;-74
2021/10/17 00:32:10;;;;;;;8.50;4.00;;;14.60;72.00;;;;;;5072741;28;20029;-74
2021/10/17 00:34:36;;;;;;;10.50;4.20;;;14.50;72.50;;;;;;5072819;28;20048;-74
2021/10/17 00:37:01;;;;;;;10.93;4.10;;;14.50;71.90;;;;;;5072856;28;20485;-75
2021/10/17 00:39:27;;;;;;;11.35;4.38;;;14.60;71.90;;;;;;5072589;28;20020;-74
2021/10/17 00:41:53;;;;;;;8.60;4.10;;;14.50;71.80;;;;;;5072734;28;20162;-74
2021/10/17 00:44:21;;;;;;;12.02;4.28;;;14.50;71.70;;;;;;5072783;28;20103;-74
2021/10/17 00:46:47;;;;;;;10.13;4.15;;;14.50;71.50;;;;;;5054662;28;20020;-75
2021/10/17 00:49:13;;;;;;;9.80;4.68;;;14.50;71.50;;;;;;5072228;28;20035;-74
2021/10/17 00:51:41;;;;;;;10.95;4.95;;;14.50;71.40;;;;;;5072577;28;20168;-74
2021/10/17 00:54:09;;;;;;;10.38;4.57;;;14.40;71.30;;;;;;5072414;28;20095;-74
2021/10/17 00:56:34;;;;;;;15.35;4.85;;;14.40;71.30;;;;;;5072421;28;20021;-75
2021/10/17 00:59:00;;;;;;;10.95;4.63;;;14.40;71.30;;;;;;5054340;28;20021;-74
2021/10/17 01:01:25;;;;;;;10.55;4.05;;;14.40;71.30;;;;;;5072429;28;20021;-74
2021/10/17 01:03:51;;;;;;;9.63;4.22;;;14.40;71.30;;;;;;5054151;28;20538;-74
2021/10/17 01:06:16;;;;;;;10.63;4.47;;;14.30;71.30;;;;;;5054532;28;20024;-74
2021/10/17 01:08:42;;;;;;;10.38;4.50;;;14.40;71.50;;;;;;5054334;28;20049;-73
2021/10/17 01:11:09;;;;;;;9.32;4.05;;;14.30;71.50;;;;;;5054539;28;20056;-75
2021/10/17 01:13:34;;;;;;;11.80;4.68;;;14.40;71.80;;;;;;5072088;28;20099;-74
2021/10/17 01:16:00;;;;;;;10.95;4.47;;;14.40;72.10;;;;;;5072215;28;20100;-75
2021/10/17 01:18:26;;;;;;;11.85;4.70;;;14.40;72.40;;;;;;5072039;28;20481;-74
2021/10/17 01:20:52;;;;;;;9.40;4.45;;;14.40;72.60;;;;;;5054547;28;20119;-75
2021/10/17 01:23:19;;;;;;;9.05;4.40;;;14.40;72.70;;;;;;5072084;28;20036;-74
2021/10/17 01:25:45;;;;;;;8.45;4.25;;;14.30;72.70;;;;;;5072063;28;20036;-76
2021/10/17 01:28:11;;;;;;;12.23;4.60;;;14.30;72.80;;;;;;5054231;28;20025;-74
2021/10/17 01:30:37;;;;;;;11.68;4.93;;;14.40;72.80;;;;;;5054140;28;20020;-75
2021/10/17 01:33:04;;;;;;;8.48;4.63;;;14.40;72.80;;;;;;5072055;28;20025;-75
2021/10/17 01:35:29;;;;;;;11.25;4.40;;;14.30;72.60;;;;;;5072015;28;20040;-74
2021/10/17 01:37:55;;;;;;;11.52;4.60;;;14.30;72.60;;;;;;5072152;28;20028;-75
2021/10/17 01:40:22;;;;;;;11.55;5.15;;;14.40;72.70;;;;;;5053953;28;20027;-74
2021/10/17 01:42:47;;;;;;;9.50;4.68;;;14.30;72.70;;;;;;5072037;28;20021;-75
2021/10/17 01:45:13;;;;;;;12.13;4.70;;;14.40;72.90;;;;;;5054010;28;20074;-74
2021/10/17 01:47:45;;;;;;;9.32;4.45;;;14.30;73.00;;;;;;5054093;28;20078;-74
2021/10/17 01:50:12;;;;;;;11.23;4.78;;;14.30;73.00;;;;;;5071782;28;20031;-74
2021/10/17 01:52:38;;;;;;;10.23;4.65;;;14.40;73.10;;;;;;5054161;28;20029;-76
2021/10/17 01:55:04;;;;;;;10.25;4.50;;;14.30;73.10;;;;;;5053999;28;20540;-75
2021/10/17 01:57:29;;;;;;;10.80;4.95;;;14.40;73.10;;;;;;5071904;28;20032;-74
2021/10/17 01:59:55;;;;;;;10.20;4.63;;;14.40;73.10;;;;;;5071679;28;20017;-74
2021/10/17 02:02:20;;;;;;;12.55;4.70;;;14.30;72.90;;;;;;5053882;28;20021;-74
2021/10/17 02:04:46;;;;;;;14.18;5.53;;;14.40;72.90;;;;;;5072012;28;20020;-74
2021/10/17 02:07:11;;;;;;;12.20;4.78;;;14.30;72.90;;;;;;5053828;28;20073;-74
2021/10/17 02:09:37;;;;;;;10.45;4.85;;;14.30;72.90;;;;;;5071733;28;20021;-74
2021/10/17 02:12:02;;;;;;;9.77;5.07;;;14.30;72.90;;;;;;5053845;28;20024;-74
2021/10/17 02:14:28;;;;;;;9.65;5.50;;;14.30;72.90;;;;;;5053610;28;20028;-76
2021/10/17 02:16:53;;;;;;;12.23;5.28;;;14.30;72.80;;;;;;5073331;28;20024;-74
2021/10/17 02:19:19;;;;;;;12.73;4.70;;;14.30;72.70;;;;;;5075343;28;20043;-74
2021/10/17 02:21:44;;;;;;;9.48;4.63;;;14.30;72.70;;;;;;5057872;28;20108;-75
2021/10/17 02:24:11;;;;;;;11.55;5.35;;;14.30;72.50;;;;;;5075404;28;20042;-75
2021/10/17 02:26:39;;;;;;;9.25;4.82;;;14.30;72.40;;;;;;5075511;28;20016;-74
2021/10/17 02:29:06;;;;;;;10.93;4.85;;;14.30;72.30;;;;;;5071030;28;20032;-74
2021/10/17 02:31:32;;;;;;;9.48;4.78;;;14.40;72.30;;;;;;5057285;28;20051;-74
2021/10/17 02:33:57;;;;;;;11.02;4.97;;;14.30;72.30;;;;;;5057255;28;20059;-74
2021/10/17 02:36:23;;;;;;;10.20;5.10;;;14.30;72.40;;;;;;5075181;28;20020;-74
2021/10/17 02:38:49;;;;;;;12.68;5.45;;;14.30;72.40;;;;;;5074924;28;20027;-73
2021/10/17 02:41:14;;;;;;;13.00;5.40;;;14.30;72.40;;;;;;5075128;28;20505;-74
2021/10/17 02:43:40;;;;;;;14.52;6.13;;;14.30;72.20;;;;;;5075099;28;20486;-75
2021/10/17 02:46:05;;;;;;;10.25;5.22;;;14.30;72.10;;;;;;5075105;28;20056;-75
2021/10/17 02:48:31;;;;;;;13.10;5.10;;;14.30;71.90;;;;;;5057041;28;20023;-74
2021/10/17 02:50:57;;;;;;;10.68;6.05;;;14.30;71.80;;;;;;5057216;28;20457;-74
2021/10/17 02:53:22;;;;;;;12.25;5.60;;;14.30;71.70;;;;;;5074978;28;20044;-74
2021/10/17 02:55:48;;;;;;;11.02;5.70;;;14.30;71.70;;;;;;5074828;28;20165;-74
2021/10/17 02:58:13;;;;;;;11.30;5.55;;;14.30;71.60;;;;;;5056699;28;20059;-74
2021/10/17 03:00:39;;;;;;;11.75;6.10;;;14.30;71.50;;;;;;5074741;28;20035;-74
2021/10/17 03:03:05;;;;;;;11.93;5.65;;;14.30;71.50;;;;;;5074768;28;20020;-74
2021/10/17 03:05:31;;;;;;;14.40;5.97;;;14.30;71.40;;;;;;5074722;28;20035;-75
2021/10/17 03:07:56;;;;;;;11.55;5.80;;;14.30;71.30;;;;;;5074752;28;20051;-74
2021/10/17 03:10:22;;;;;;;12.63;5.75;;;14.30;71.20;;;;;;5056623;28;20032;-75
2021/10/17 03:12:52;;;;;;;11.50;5.75;;;14.40;71.20;;;;;;5074499;28;20043;-74
2021/10/17 03:15:18;;;;;;;12.57;6.65;;;14.40;71.00;;;;;;5074507;28;20031;-74
2021/10/17 03:17:43;;;;;;;12.15;5.78;;;14.40;71.40;;;;;;5074425;28;20020;-74
2021/10/17 03:20:10;;;;;;;11.75;6.15;;;14.40;70.80;;;;;;5056303;28;20028;-75
2021/10/17 03:22:37;;;;;;;11.65;5.63;;;14.40;70.80;;;;;;5056407;28;20504;-75
2021/10/17 03:25:03;;;;;;;11.80;5.50;;;14.40;70.90;;;;;;5074272;28;20028;-75
2021/10/17 03:27:28;;;;;;;13.02;6.20;;;14.40;70.70;;;;;;5074008;28;20028;-75
2021/10/17 03:29:54;;;;;;;12.07;5.97;;;14.40;70.80;;;;;;5074074;28;20021;-75
2021/10/17 03:32:20;;;;;;;12.75;6.30;;;14.40;70.60;;;;;;5074066;28;20039;-75
2021/10/17 03:34:45;;;;;;;12.68;5.65;;;14.40;70.60;;;;;;5074061;28;20027;-75
2021/10/17 03:37:11;;;;;;;13.43;6.35;;;14.40;70.40;;;;;;5074218;28;20390;-74
2021/10/17 03:39:36;;;;;;;11.75;5.97;;;14.40;70.60;;;;;;5073614;28;20020;-74
2021/10/17 03:42:02;;;;;;;12.60;6.35;;;14.40;70.50;;;;;;5056149;28;20028;-74
2021/10/17 03:44:28;;;;;;;11.90;5.93;;;14.40;70.50;;;;;;5056111;28;20448;-74
2021/10/17 03:46:53;;;;;;;11.95;6.10;;;14.30;70.60;;;;;;5074106;28;20441;-74
2021/10/17 03:49:19;;;;;;;10.80;6.25;;;14.30;70.60;;;;;;5073625;28;20024;-74
2021/10/17 03:51:44;;;;;;;14.10;6.70;;;14.30;70.80;;;;;;5056135;28;20393;-75
2021/10/17 03:54:10;;;;;;;11.65;5.97;;;14.30;70.80;;;;;;5073869;28;20036;-74
2021/10/17 03:56:35;;;;;;;14.20;6.03;;;14.20;70.80;;;;;;5061666;28;20103;-74
2021/10/17 03:59:01;;;;;;;11.73;5.90;;;14.30;70.90;;;;;;5055872;28;20024;-74
2021/10/17 04:01:26;;;;;;;10.50;6.30;;;14.30;70.90;;;;;;5055716;28;20024;-74
2021/10/17 04:03:52;;;;;;;10.85;6.05;;;14.30;71.00;;;;;;5055695;28;20017;-74
2021/10/17 04:06:17;;;;;;;14.05;6.25;;;14.30;70.90;;;;;;5073495;28;20035;-74
2021/10/17 04:08:44;;;;;;;13.93;6.53;;;14.20;70.90;;;;;;5055346;28;20028;-74
2021/10/17 04:11:10;;;;;;;14.00;7.15;;;14.20;70.90;;;;;;5055584;28;20138;-74
2021/10/17 04:13:35;;;;;;;16.35;6.50;;;14.20;70.90;;;;;;5073468;28;20466;-74
2021/10/17 04:16:01;;;;;;;13.13;6.40;;;14.20;70.90;;;;;;5073247;28;20043;-74
2021/10/17 04:18:26;;;;;;;10.07;6.22;;;14.20;70.80;;;;;;5073063;28;20020;-74
2021/10/17 04:20:52;;;;;;;12.05;6.60;;;14.20;70.80;;;;;;5073346;28;20474;-74
2021/10/17 04:23:17;;;;;;;13.65;6.65;;;14.20;70.70;;;;;;5072965;28;20040;-75
2021/10/17 04:25:43;;;;;;;12.73;6.15;;;14.20;70.70;;;;;;5072994;28;20031;-74
2021/10/17 04:28:09;;;;;;;13.02;6.20;;;14.20;70.70;;;;;;5072884;28;20040;-75
2021/10/17 04:30:34;;;;;;;10.05;6.53;;;14.20;70.70;;;;;;5071387;28;20016;-74
2021/10/17 04:33:00;;;;;;;12.20;6.32;;;14.20;70.60;;;;;;5063670;28;20032;-74
2021/10/17 04:35:25;;;;;;;15.35;7.03;;;14.20;70.60;;;;;;5034936;28;20033;-75
2021/10/17 04:37:51;;;;;;;14.07;7.20;;;14.20;70.60;;;;;;5052757;28;20024;-75
2021/10/17 04:40:17;;;;;;;13.60;6.38;;;14.20;70.60;;;;;;5052897;28;20033;-73
2021/10/17 04:42:43;;;;;;;12.30;6.15;;;14.20;70.60;;;;;;5054192;28;20021;-75
2021/10/17 04:45:10;;;;;;;12.82;6.43;;;14.20;70.50;;;;;;5054841;28;20502;-74
2021/10/17 04:47:35;;;;;;;11.35;6.60;;;14.20;70.50;;;;;;5054860;28;20039;-75
2021/10/17 04:50:01;;;;;;;12.65;6.47;;;14.20;70.40;;;;;;5054487;28;20020;-74
2021/10/17 04:52:27;;;;;;;12.93;7.10;;;14.20;70.40;;;;;;5054881;28;20020;-75
2021/10/17 04:54:52;;;;;;;13.27;6.53;;;14.20;70.40;;;;;;5054638;28;20032;-75
2021/10/17 04:57:18;;;;;;;14.48;7.38;;;14.20;70.30;;;;;;5054651;28;20028;-75
2021/10/17 04:59:43;;;;;;;12.55;6.60;;;14.20;70.40;;;;;;5054329;28;20016;-74
2021/10/17 05:02:09;;;;;;;12.57;6.80;;;14.20;70.90;;;;;;5072277;28;20029;-74
2021/10/17 05:04:36;;;;;;;14.60;6.80;;;14.20;70.40;;;;;;5072423;28;20443;-74
2021/10/17 05:07:02;;;;;;;13.38;7.50;;;14.20;70.30;;;;;;5054503;28;20063;-74
2021/10/17 05:09:27;;;;;;;16.45;6.90;;;14.20;70.40;;;;;;5054120;28;20058;-74
2021/10/17 05:11:53;;;;;;;15.98;7.40;;;14.20;70.50;;;;;;5072231;28;20033;-75
2021/10/17 05:14:18;;;;;;;16.17;7.55;;;14.20;70.40;;;;;;5072310;28;20028;-74
2021/10/17 05:16:44;;;;;;;15.20;7.60;;;14.20;70.40;;;;;;5072264;28;20017;-74
2021/10/17 05:19:10;;;;;;;22.65;7.65;;;14.20;70.40;;;;;;5072751;28;20028;-74
2021/10/17 05:21:36;;;;;;;11.82;6.88;;;14.10;70.30;;;;;;5072478;28;20429;-74
2021/10/17 05:24:02;;;;;;;13.63;6.78;;;14.20;70.40;;;;;;5067039;23;20044;-76
2021/10/17 05:26:27;;;;;;;13.07;7.85;;;14.20;70.40;;;;;;5072022;28;20035;-76
2021/10/17 05:28:53;;;;;;;12.88;7.22;;;14.20;70.30;;;;;;5072445;28;20029;-76
2021/10/17 05:31:18;;;;;;;14.18;7.60;;;14.20;70.40;;;;;;5054604;28;20437;-76
2021/10/17 05:33:44;;;;;;;13.65;7.35;;;14.20;70.30;;;;;;5072257;28;20024;-76
2021/10/17 05:36:12;;;;;;;13.32;7.50;;;14.20;70.30;;;;;;5054575;28;20017;-77
2021/10/17 05:38:38;;;;;;;15.20;6.90;;;14.20;70.30;;;;;;5054296;28;20025;-76
2021/10/17 05:41:04;;;;;;;15.25;7.68;;;14.10;70.10;;;;;;5054525;28;20413;-75
2021/10/17 05:43:30;;;;;;;12.57;7.32;;;14.20;70.10;;;;;;5054326;28;20035;-76
2021/10/17 05:45:56;;;;;;;12.85;7.03;;;14.20;70.10;;;;;;5054511;28;20047;-76
2021/10/17 05:48:21;;;;;;;14.23;7.47;;;14.20;70.10;;;;;;5072239;28;20036;-76
2021/10/17 05:50:47;;;;;;;14.40;7.97;;;14.10;69.90;;;;;;5073973;28;20048;-76
2021/10/17 05:53:12;;;;;;;16.13;8.07;;;14.20;70.00;;;;;;5076620;28;20028;-76
2021/10/17 05:55:39;;;;;;;16.23;7.03;;;14.20;69.90;;;;;;5076461;28;20032;-76
2021/10/17 05:58:05;;;;;;;15.35;7.28;;;14.20;69.80;;;;;;5058482;28;20024;-76
2021/10/17 06:00:30;;;;;;;14.35;7.53;;;14.20;69.70;;;;;;5058127;28;20021;-75
2021/10/17 06:02:56;;;;;;;12.52;7.32;;;14.20;69.60;;;;;;5076257;28;20491;-76
2021/10/17 06:05:22;;;;;;;12.32;6.90;;;14.30;69.70;;;;;;5076149;28;20024;-76
2021/10/17 06:07:47;;;;;;;13.45;7.85;;;14.30;69.60;;;;;;5076034;28;20151;-75
2021/10/17 06:10:13;;;;;;;13.48;7.85;;;14.30;69.60;;;;;;5075938;28;20024;-76
2021/10/17 06:12:40;;;;;;;13.95;7.15;;;14.30;69.70;;;;;;5076081;28;20023;-76
2021/10/17 06:15:08;;;;;;;14.98;7.63;;;14.30;69.80;;;;;;5057880;28;20031;-76
2021/10/17 06:17:34;;;;;;;15.68;7.68;;;14.30;69.80;;;;;;5076011;28;20445;-76
2021/10/17 06:19:59;;;;;;;14.75;7.47;;;14.30;69.70;;;;;;5076544;28;20033;-77
2021/10/17 06:22:25;;;;;;;13.40;7.35;;;14.30;69.60;;;;;;5059584;28;20028;-77
2021/10/17 06:24:50;;;;;;;17.85;7.38;;;14.30;69.70;;;;;;5068417;28;20052;-77
2021/10/17 06:27:16;;;;;;;12.95;7.32;;;14.30;69.50;;;;;;5059060;28;20032;-78
2021/10/17 06:29:42;;;;;;;11.85;7.65;;;14.30;69.50;;;;;;5058808;28;20398;-78
2021/10/17 06:32:07;;;;;;;12.75;6.88;;;14.30;69.30;;;;;;5076486;28;20111;-77
2021/10/17 06:34:33;;;;;;;11.98;6.93;;;14.30;69.30;;;;;;5075848;28;20025;-78
2021/10/17 06:36:58;;;;;;;12.98;7.03;;;14.20;69.30;;;;;;5075811;28;20036;-75
2021/10/17 06:39:24;;;;;;;13.10;6.80;;;14.20;69.40;;;;;;5075563;28;20080;-76
2021/10/17 06:41:50;;;;;;;12.82;6.93;;;14.20;69.50;;;;;;5075585;28;20073;-77
2021/10/17 06:44:18;;;;;;;15.98;7.32;;;14.20;69.70;;;;;;5057702;28;20032;-77
2021/10/17 06:46:44;;;;;;;12.20;7.03;;;14.20;69.80;;;;;;5058038;28;20036;-77
2021/10/17 06:49:09;;;;;;;13.65;7.40;;;14.10;69.80;;;;;;5075374;28;20029;-77
2021/10/17 06:51:35;;;;;;;13.40;6.95;;;14.10;69.80;;;;;;5057685;28;20470;-77
2021/10/17 06:54:00;;;;;;;13.40;6.82;;;14.10;69.80;;;;;;5057531;28;20102;-76
2021/10/17 06:56:26;;;;;;;15.40;6.82;;;14.10;69.80;;;;;;5057467;28;20457;-77
2021/10/17 06:58:51;;;;;;;12.40;6.65;;;14.10;69.80;;;;;;5057247;28;20097;-77
2021/10/17 07:01:17;;;;;;;14.32;7.18;;;14.10;69.90;;;;;;5057495;28;20017;-75
2021/10/17 07:03:43;;;;;;;15.32;7.57;;;14.10;70.00;;;;;;5056598;28;20039;-77
2021/10/17 07:06:08;;;;;;;12.05;6.72;;;14.10;69.90;;;;;;5075453;28;20375;-76
2021/10/17 07:08:34;;;;;;;14.60;7.13;;;14.10;69.90;;;;;;5075219;28;20016;-77
2021/10/17 07:11:00;;;;;;;10.45;6.45;;;14.10;69.90;;;;;;5075329;28;20111;-75
2021/10/17 07:13:26;;;;;;;10.82;6.78;;;14.10;69.80;;;;;;5075458;28;20473;-77
2021/10/17 07:15:52;;;;;;;14.85;7.18;;;14.10;69.80;;;;;;5057662;28;20032;-77
2021/10/17 07:18:17;;;;;;;14.80;6.80;;;14.10;69.90;;;;;;5075665;28;20032;-77
2021/10/17 07:20:43;;;;;;;13.65;6.93;;;14.10;69.90;;;;;;5075815;28;20021;-77
2021/10/17 07:23:08;;;;;;;13.77;6.85;;;14.10;69.80;;;;;;5057594;28;20111;-74
2021/10/17 07:25:34;;;;;;;12.48;7.03;;;14.10;69.80;;;;;;5057106;28;20032;-76
2021/10/17 07:28:00;;;;;;;13.50;6.88;;;14.10;69.90;;;;;;5066603;28;20078;-76
2021/10/17 07:30:26;;;;;;;11.90;6.60;;;14.10;69.80;;;;;;5037109;28;20106;-78
2021/10/17 07:32:52;;;;;;;12.73;6.50;;;14.10;69.80;;;;;;5055513;28;20025;-77
2021/10/17 07:35:17;;;;;;;14.75;6.60;;;14.10;69.80;;;;;;5066223;28;20033;-76
2021/10/17 07:37:43;;;;;;;13.23;6.13;;;14.10;69.90;;;;;;5067898;28;20431;-79
2021/10/17 07:40:09;;;;;;;12.73;7.35;;;14.10;69.90;;;;;;5072642;28;20082;-79
2021/10/17 07:42:35;;;;;;;15.10;7.05;;;14.10;69.70;;;;;;5057309;28;20673;-77
2021/10/17 07:45:01;;;;;;;14.82;6.55;;;14.10;69.70;;;;;;5039120;28;20033;-79
2021/10/17 07:47:26;;;;;;;15.02;6.85;;;14.10;69.70;;;;;;5056843;28;20103;-79
2021/10/17 07:49:52;;;;;;;12.85;6.60;;;14.10;69.70;;;;;;5062121;28;20020;-77
2021/10/17 07:52:18;;;;;;;14.85;6.80;;;14.10;69.70;;;;;;5059487;28;20516;-79
2021/10/17 07:54:43;;;;;;;12.70;6.18;;;14.10;69.80;;;;;;5076986;28;20032;-78
2021/10/17 07:57:10;;;;;;;13.15;6.32;;;14.10;69.90;;;;;;5076947;28;20033;-78
2021/10/17 07:59:36;;;;;;;14.85;6.38;;;14.10;69.80;;;;;;5058778;28;20040;-79
2021/10/17 08:02:02;;;;;;;14.68;7.03;;;14.10;69.90;;;;;;5059779;28;20020;-79
2021/10/17 08:04:28;;;;;;;17.20;7.40;;;14.10;69.70;;;;;;5059437;28;20039;-78
2021/10/17 08:06:53;;;;;;;13.82;6.82;;;14.10;69.30;;;;;;5059701;28;20020;-78
2021/10/17 08:09:20;;;;;;;17.15;6.97;;;14.10;69.40;;;;;;5059169;28;20031;-80
2021/10/17 08:11:45;;;;;;;15.07;6.53;;;14.10;69.40;;;;;;5058600;28;20547;-78
2021/10/17 08:14:11;;;;;;;14.40;6.82;;;14.10;69.40;;;;;;5075673;28;20058;-78
2021/10/17 08:16:37;;;;;;;13.05;7.03;;;14.10;69.40;;;;;;5058747;28;20042;-78
2021/10/17 08:19:04;;;;;;;14.27;6.85;;;14.10;69.30;;;;;;5075488;28;20024;-78
2021/10/17 08:21:30;;;;;;;12.05;6.80;;;14.10;69.30;;;;;;5069442;28;20023;-80
2021/10/17 08:23:59;;;;;;;13.65;7.03;;;14.10;69.20;;;;;;5055224;28;20486;-79
2021/10/17 08:26:24;;;;;;;11.95;6.45;;;14.10;69.10;;;;;;5052169;28;20024;-75
2021/10/17 08:28:50;;;;;;;15.05;6.47;;;14.10;69.20;;;;;;5056644;28;20561;-75
2021/10/17 08:31:16;;;;;;;12.73;6.10;;;14.10;69.20;;;;;;5057413;28;20123;-80
2021/10/17 08:33:41;;;;;;;13.65;7.03;;;14.20;69.20;;;;;;5056477;28;20107;-75
2021/10/17 08:36:08;;;;;;;13.13;6.47;;;14.10;69.10;;;;;;5056965;28;20024;-78
2021/10/17 08:38:34;;;;;;;11.18;6.53;;;14.10;69.00;;;;;;5056764;28;20025;-78
2021/10/17 08:41:00;;;;;;;13.70;7.10;;;14.10;69.00;;;;;;5056764;28;20044;-78
2021/10/17 08:43:26;;;;;;;12.25;6.88;;;14.10;68.90;;;;;;5056148;28;20028;-76
2021/10/17 08:45:52;;;;;;;13.57;6.60;;;14.10;68.90;;;;;;5074667;28;20029;-76
2021/10/17 08:48:18;;;;;;;14.75;6.65;;;14.10;68.80;;;;;;5055638;28;20051;-76
2021/10/17 08:50:44;;;;;;;14.43;5.88;;;14.10;68.70;;;;;;5056599;28;20020;-80
2021/10/17 08:53:10;;;;;;;14.32;6.47;;;14.10;68.80;;;;;;5039796;28;20029;-76
2021/10/17 08:55:36;;;;;;;11.20;5.63;;;14.10;68.80;;;;;;5053304;28;20032;-76
2021/10/17 08:58:02;;;;;;;10.88;6.00;;;14.20;68.70;;;;;;5054208;28;20115;-77
2021/10/17 09:00:32;;;;;;;12.82;6.00;;;14.20;68.60;;;;;;5054328;28;20048;-77
2021/10/17 09:02:58;;;;;;;13.10;6.18;;;14.20;68.50;;;;;;5054570;28;20055;-77
2021/10/17 09:08:46;;;;;;;17.73;7.03;;;14.20;68.50;;;;;;5054255;28;20055;-80
2021/10/17 09:11:13;;;;;;;16.00;6.50;;;14.20;68.50;;;;;;5072532;28;20478;-77
2021/10/17 09:14:01;;;;;;;17.20;6.72;;;14.20;68.70;;;;;;5073852;28;20389;-76
2021/10/17 09:16:28;;;;;;;15.32;6.20;;;14.20;68.50;;;;;;5069904;28;20033;-77
2021/10/17 09:19:07;;;;;;;13.35;6.03;;;14.20;68.50;;;;;;5055089;28;20032;-76
2021/10/17 09:21:33;;;;;;;15.27;6.40;;;14.30;68.60;;;;;;5074557;28;20070;-78
2021/10/17 09:23:59;;;;;;;13.80;5.55;;;14.20;68.50;;;;;;5075244;28;20512;-78
2021/10/17 09:26:24;;;;;;;14.07;6.57;;;14.30;68.50;;;;;;5074919;28;20029;-77
2021/10/17 09:28:51;;;;;;;13.88;6.78;;;14.20;68.20;;;;;;5074926;28;20394;-81
2021/10/17 09:31:19;;;;;;;12.63;6.30;;;14.20;68.20;;;;;;5056784;28;20031;-80
2021/10/17 09:33:56;;;;;;;13.25;6.05;;;14.20;68.20;;;;;;5057361;28;20070;-80
2021/10/17 09:36:31;;;;;;;13.48;6.50;;;14.20;68.20;;;;;;5058340;28;20131;-78
2021/10/17 09:39:09;;;;;;;14.20;5.97;;;14.20;68.30;;;;;;5058703;28;20063;-79
2021/10/17 09:41:50;;;;;;;10.85;5.78;;;14.10;68.30;;;;;;5058750;28;20029;-80
2021/10/17 09:44:16;;;;;;;14.95;6.70;;;14.10;68.40;;;;;;5058193;28;20033;-78
2021/10/17 09:46:58;;;;;;;12.02;6.15;;;14.20;68.60;;;;;;5059119;28;20508;-78
2021/10/17 09:49:24;;;;;;;13.10;6.03;;;14.10;68.70;;;;;;5058579;28;20024;-78
2021/10/17 09:52:09;;;;;;;11.73;5.75;;;14.10;68.70;;;;;;5058285;28;20108;-80
2021/10/17 09:54:37;;;;;;;11.90;6.05;;;14.10;68.90;;;;;;5058415;28;20074;-80
2021/10/17 09:57:06;;;;;;;13.52;6.43;;;14.10;69.00;;;;;;5058111;28;20020;-79
2021/10/17 09:59:32;;;;;;;10.75;5.78;;;14.10;69.10;;;;;;5058036;28;20115;-79
2021/10/17 10:01:58;;;;;;;11.85;6.07;;;14.20;69.30;;;;;;5058009;28;20752;-78
2021/10/17 10:04:25;;;;;;;13.00;5.78;;;14.10;69.30;;;;;;5075946;28;20029;-79
2021/10/17 10:06:52;;;;;;;11.73;6.15;;;14.10;69.40;;;;;;5045981;28;20025;-79
2021/10/17 10:09:20;;;;;;;12.90;5.80;;;14.10;69.50;;;;;;5044214;28;20063;-78
2021/10/17 10:11:46;;;;;;;12.57;6.32;;;14.20;69.60;;;;;;5065738;28;20025;-79
2021/10/17 10:14:13;;;;;;;12.75;5.85;;;14.20;69.70;;;;;;5056063;28;20033;-80
2021/10/17 10:16:39;;;;;;;18.48;6.20;;;14.20;69.80;;;;;;5059317;28;20471;-80
2021/10/17 10:19:07;;;;;;;14.05;6.43;;;14.20;70.30;;;;;;5040352;28;20051;-79
2021/10/17 10:21:34;;;;;;;14.75;6.20;;;14.20;69.70;;;;;;5038524;28;20113;-79
2021/10/17 10:24:09;;;;;;;13.00;6.55;;;14.20;69.70;;;;;;5038623;28;20076;-82
2021/10/17 10:26:36;;;;;;;12.10;5.90;;;14.20;69.70;;;;;;5038579;28;20159;-78
2021/10/17 10:29:03;;;;;;;12.07;6.50;;;14.20;69.60;;;;;;5037657;28;20024;-79
2021/10/17 10:31:40;;;;;;;14.07;6.15;;;14.20;69.60;;;;;;5037853;28;20053;-78
2021/10/17 10:34:21;;;;;;;14.50;6.20;;;14.20;69.50;;;;;;5055550;28;20028;-79
2021/10/17 10:36:48;;;;;;;12.40;6.35;;;14.20;69.50;;;;;;5038012;28;20052;-78
2021/10/17 10:39:16;;;;;;;14.38;6.22;;;14.20;69.50;;;;;;5058976;28;20079;-79
2021/10/17 10:41:49;;;;;;;12.15;5.95;;;14.20;69.60;;;;;;5041835;28;20021;-78
2021/10/17 10:44:40;;;;;;;12.23;6.00;;;14.20;69.70;;;;;;5041575;28;20025;-79
2021/10/17 10:47:27;;;;;;;14.95;6.47;;;14.20;69.70;;;;;;5042123;28;20065;-79
2021/10/17 10:49:54;;;;;;;11.73;5.55;;;14.20;69.80;;;;;;5060103;28;20566;-79
2021/10/17 10:52:23;;;;;;;12.45;6.03;;;14.20;69.90;;;;;;5041814;28;20548;-80
2021/10/17 10:54:49;;;;;;;12.50;6.20;;;14.20;70.00;;;;;;5059810;28;20020;-78
2021/10/17 10:57:31;;;;;;;12.55;5.95;;;14.20;70.10;;;;;;5059142;28;20589;-79
2021/10/17 11:00:04;;;;;;;13.45;5.80;;;14.20;70.10;;;;;;5041782;28;20025;-79
2021/10/17 11:02:31;;;;;;;11.45;6.25;;;14.20;70.20;;;;;;5042145;28;20021;-79
2021/10/17 11:04:59;;;;;;;12.15;5.68;;;14.20;70.20;;;;;;5059599;28;20025;-79
2021/10/17 11:07:32;;;;;;;12.77;6.30;;;14.20;70.30;;;;;;5042944;28;20025;-79
2021/10/17 11:10:22;;;;;;;12.60;6.57;;;14.30;70.30;;;;;;5077198;28;20032;-79
2021/10/17 11:13:02;;;;;;;15.25;5.88;;;14.20;70.30;;;;;;5063935;28;20016;-79
2021/10/17 11:15:31;;;;;;;12.32;6.32;;;14.20;70.10;;;;;;5063585;28;20025;-79
2021/10/17 11:18:05;;;;;;;11.18;6.22;;;14.30;70.10;;;;;;5063826;28;20024;-79
2021/10/17 11:20:37;;;;;;;10.38;5.55;;;14.30;70.10;;;;;;5081861;28;20092;-79
2021/10/17 11:23:05;;;;;;;14.05;6.32;;;14.30;70.10;;;;;;5078972;28;20103;-79
2021/10/17 11:25:32;;;;;;;12.07;5.90;;;14.20;70.60;;;;;;5059808;28;20029;-77
2021/10/17 11:27:58;;;;;;;13.25;5.63;;;14.30;70.20;;;;;;5077623;28;20016;-78
2021/10/17 11:30:28;;;;;;;11.52;5.45;;;14.20;70.20;;;;;;5077948;28;20453;-77
2021/10/17 11:32:55;;;;;;;10.10;5.63;;;14.20;70.20;;;;;;5059283;28;20025;-78
2021/10/17 11:35:32;;;;;;;10.93;5.72;;;14.20;70.20;;;;;;5059250;28;20025;-78
2021/10/17 11:38:00;;;;;;;10.80;5.45;;;14.20;70.20;;;;;;5078033;28;20016;-79
2021/10/17 11:40:26;;;;;;;12.90;5.68;;;14.20;70.50;;;;;;5077405;28;20088;-77
2021/10/17 11:42:55;;;;;;;10.38;5.53;;;14.20;70.20;;;;;;5077012;28;20024;-78
2021/10/17 11:45:23;;;;;;;13.27;6.05;;;14.30;70.20;;;;;;5077807;28;20402;-79
2021/10/17 11:47:50;;;;;;;10.68;5.78;;;14.30;70.10;;;;;;5077387;28;20032;-80
2021/10/17 11:50:21;;;;;;;11.32;6.15;;;14.30;70.00;;;;;;5076664;28;20024;-77
2021/10/17 11:52:54;;;;;;;12.87;6.13;;;14.30;70.00;;;;;;5058308;28;20035;-77
2021/10/17 11:55:29;;;;;;;11.75;5.90;;;14.30;70.00;;;;;;5075049;28;20279;-77
2021/10/17 11:57:55;;;;;;;9.60;5.15;;;14.30;70.10;;;;;;5074714;28;20498;-77
2021/10/17 12:00:28;;;;;;;14.20;5.72;;;14.40;70.60;;;;;;5074360;28;20035;-77
2021/10/17 12:02:55;;;;;;;13.23;5.95;;;14.40;70.40;;;;;;5056645;28;20024;-76
2021/10/17 12:05:23;;;;;;;16.02;5.85;;;14.40;70.30;;;;;;5074521;28;20024;-77
2021/10/17 12:07:49;;;;;;;14.75;5.78;;;14.40;70.40;;;;;;5074467;28;20021;-77
2021/10/17 12:10:15;;;;;;;14.15;5.88;;;14.40;70.40;;;;;;5074330;28;20042;-78
2021/10/17 12:12:42;;;;;;;15.15;6.00;;;14.40;70.30;;;;;;5056830;28;20394;-77
2021/10/17 12:15:14;;;;;;;14.48;5.95;;;14.40;70.40;;;;;;5056697;28;20078;-78
2021/10/17 12:17:41;;;;;;;16.95;6.85;;;14.40;70.50;;;;;;5058579;28;20025;-79
2021/10/17 12:20:14;;;;;;;15.55;6.40;;;14.40;70.60;;;;;;5074686;28;20056;-77
2021/10/17 12:22:42;;;;;;;13.95;6.15;;;14.40;70.70;;;;;;5076011;28;20052;-80
2021/10/17 12:25:08;;;;;;;12.50;5.95;;;14.30;70.80;;;;;;5057374;28;20123;-75
2021/10/17 12:27:41;;;;;;;15.82;6.80;;;14.30;71.00;;;;;;5074751;28;20071;-79
2021/10/17 12:30:13;;;;;;;15.98;6.30;;;14.30;71.10;;;;;;5057027;28;20489;-76
2021/10/17 12:32:50;;;;;;;12.30;6.10;;;14.30;71.30;;;;;;5057109;28;20040;-81
2021/10/17 12:35:34;;;;;;;15.95;6.70;;;14.20;71.50;;;;;;5056484;28;20029;-77
2021/10/17 12:38:07;;;;;;;15.95;6.45;;;14.20;71.70;;;;;;5074994;28;20028;-76
2021/10/17 12:40:35;;;;;;;20.08;6.43;;;14.20;71.80;;;;;;5074929;28;20131;-79